sensor_id;sensor_type;location;lat;lon;timestamp;P1;durP1;ratioP1;P2;durP2;ratioP2
22070;SDS011;11200;51.488;6.668;2022-08-19T00:02:23;3.78;;;3.47;;
22070;SDS011;11200;51.488;6.668;2022-08-19T00:04:49;4.15;;;3.85;;
22070;SDS011;11200;51.488;6.668;2022-08-19T00:07:17;3.97;;;3.65;;
22070;SDS011;11200;51.488;6.668;2022-08-19T00:09:44;4.20;;;3.83;;
22070;SDS011;11200;51.488;6.668;2022-08-19T00:12:10;3.70;;;3.40;;
22070;SDS011;11200;51.488;6.668;2022-08-19T00:14:36;3.95;;;3.58;;
22070;SDS011;11200;51.488;6.668;2022-08-19T00:17:03;4.85;;;3.42;;
22070;SDS011;11200;51.488;6.668;2022-08-19T00:19:30;4.30;;;3.90;;
22070;SDS011;11200;51.488;6.668;2022-08-19T00:21:56;4.05;;;3.75;;
22070;SDS011;11200;51.488;6.668;2022-08-19T00:24:21;4.22;;;3.90;;
22070;SDS011;11200;51.488;6.668;2022-08-19T00:26:47;3.95;;;3.63;;
22070;SDS011;11200;51.488;6.668;2022-08-19T00:29:17;4.00;;;3.60;;
22070;SDS011;11200;51.488;6.668;2022-08-19T00:31:43;4.18;;;3.78;;
22070;SDS011;11200;51.488;6.668;2022-08-19T00:34:10;4.38;;;3.97;;
22070;SDS011;11200;51.488;6.668;2022-08-19T00:36:37;4.22;;;3.83;;
22070;SDS011;11200;51.488;6.668;2022-08-19T00:39:03;3.83;;;3.53;;
22070;SDS011;11200;51.488;6.668;2022-08-19T00:41:29;4.18;;;3.78;;
22070;SDS011;11200;51.488;6.668;2022-08-19T00:44:11;3.92;;;3.60;;
22070;SDS011;11200;51.488;6.668;2022-08-19T00:46:41;4.18;;;3.80;;
22070;SDS011;11200;51.488;6.668;2022-08-19T00:49:10;3.90;;;3.60;;
22070;SDS011;11200;51.488;6.668;2022-08-19T00:51:45;4.20;;;3.90;;
22070;SDS011;11200;51.488;6.668;2022-08-19T00:54:13;3.90;;;3.60;;
22070;SDS011;11200;51.488;6.668;2022-08-19T00:56:40;3.78;;;3.47;;
22070;SDS011;11200;51.488;6.668;2022-08-19T00:59:07;3.88;;;3.58;;
22070;SDS011;11200;51.488;6.668;2022-08-19T01:01:34;3.72;;;3.42;;
22070;SDS011;11200;51.488;6.668;2022-08-19T01:04:05;3.80;;;3.50;;
22070;SDS011;11200;51.488;6.668;2022-08-19T01:06:30;3.92;;;3.63;;
22070;SDS011;11200;51.488;6.668;2022-08-19T01:08:58;3.90;;;3.60;;
22070;SDS011;11200;51.488;6.668;2022-08-19T01:11:25;4.10;;;3.80;;
22070;SDS011;11200;51.488;6.668;2022-08-19T01:13:55;3.80;;;3.50;;
22070;SDS011;11200;51.488;6.668;2022-08-19T01:16:22;4.07;;;3.78;;
22070;SDS011;11200;51.488;6.668;2022-08-19T01:18:50;4.38;;;4.03;;
22070;SDS011;11200;51.488;6.668;2022-08-19T01:21:37;4.10;;;3.72;;
22070;SDS011;11200;51.488;6.668;2022-08-19T01:24:11;4.38;;;3.97;;
22070;SDS011;11200;51.488;6.668;2022-08-19T01:26:42;4.63;;;4.22;;
22070;SDS011;11200;51.488;6.668;2022-08-19T01:29:11;4.18;;;3.88;;
22070;SDS011;11200;51.488;6.668;2022-08-19T01:31:37;4.50;;;4.10;;
22070;SDS011;11200;51.488;6.668;2022-08-19T01:34:04;4.05;;;3.75;;
22070;SDS011;11200;51.488;6.668;2022-08-19T01:39:08;4.72;;;4.32;;
22070;SDS011;11200;51.488;6.668;2022-08-19T01:41:37;4.50;;;3.83;;
22070;SDS011;11200;51.488;6.668;2022-08-19T01:44:03;4.40;;;4.00;;
22070;SDS011;11200;51.488;6.668;2022-08-19T01:46:30;4.28;;;3.90;;
22070;SDS011;11200;51.488;6.668;2022-08-19T01:48:57;4.30;;;4.00;;
22070;SDS011;11200;51.488;6.668;2022-08-19T01:51:23;3.88;;;3.58;;
22070;SDS011;11200;51.488;6.668;2022-08-19T01:53:49;4.40;;;4.05;;
22070;SDS011;11200;51.488;6.668;2022-08-19T01:56:16;4.57;;;4.18;;
22070;SDS011;11200;51.488;6.668;2022-08-19T01:58:49;5.05;;;3.95;;
22070;SDS011;11200;51.488;6.668;2022-08-19T02:01:19;4.82;;;4.10;;
22070;SDS011;11200;51.488;6.668;2022-08-19T02:03:45;4.28;;;3.88;;
22070;SDS011;11200;51.488;6.668;2022-08-19T02:06:11;4.20;;;3.90;;
22070;SDS011;11200;51.488;6.668;2022-08-19T02:08:37;4.15;;;3.85;;
22070;SDS011;11200;51.488;6.668;2022-08-19T02:11:04;4.32;;;4.03;;
22070;SDS011;11200;51.488;6.668;2022-08-19T02:13:31;3.97;;;3.67;;
22070;SDS011;11200;51.488;6.668;2022-08-19T02:15:58;4.20;;;3.90;;
22070;SDS011;11200;51.488;6.668;2022-08-19T02:18:24;4.20;;;3.90;;
22070;SDS011;11200;51.488;6.668;2022-08-19T02:20:51;4.25;;;3.95;;
22070;SDS011;11200;51.488;6.668;2022-08-19T02:23:17;4.32;;;3.95;;
22070;SDS011;11200;51.488;6.668;2022-08-19T02:25:43;4.20;;;3.80;;
22070;SDS011;11200;51.488;6.668;2022-08-19T02:28:11;4.40;;;4.00;;
22070;SDS011;11200;51.488;6.668;2022-08-19T02:30:37;4.30;;;3.90;;
22070;SDS011;11200;51.488;6.668;2022-08-19T02:33:03;4.45;;;4.05;;
22070;SDS011;11200;51.488;6.668;2022-08-19T02:35:30;4.28;;;3.90;;
22070;SDS011;11200;51.488;6.668;2022-08-19T02:37:56;4.30;;;3.80;;
22070;SDS011;11200;51.488;6.668;2022-08-19T02:40:40;4.20;;;3.85;;
22070;SDS011;11200;51.488;6.668;2022-08-19T02:43:14;4.13;;;3.83;;
22070;SDS011;11200;51.488;6.668;2022-08-19T02:45:40;4.70;;;4.30;;
22070;SDS011;11200;51.488;6.668;2022-08-19T02:48:06;4.38;;;3.97;;
22070;SDS011;11200;51.488;6.668;2022-08-19T02:50:32;4.40;;;4.00;;
22070;SDS011;11200;51.488;6.668;2022-08-19T02:52:58;4.95;;;3.80;;
22070;SDS011;11200;51.488;6.668;2022-08-19T02:55:23;4.53;;;4.13;;
22070;SDS011;11200;51.488;6.668;2022-08-19T02:57:49;3.95;;;3.65;;
22070;SDS011;11200;51.488;6.668;2022-08-19T03:00:15;4.15;;;3.80;;
22070;SDS011;11200;51.488;6.668;2022-08-19T03:02:41;4.50;;;4.10;;
22070;SDS011;11200;51.488;6.668;2022-08-19T03:05:07;3.92;;;3.63;;
22070;SDS011;11200;51.488;6.668;2022-08-19T03:07:34;4.30;;;3.90;;
22070;SDS011;11200;51.488;6.668;2022-08-19T03:10:00;4.10;;;3.80;;
22070;SDS011;11200;51.488;6.668;2022-08-19T03:12:26;4.13;;;3.83;;
22070;SDS011;11200;51.488;6.668;2022-08-19T03:14:52;4.15;;;3.75;;
22070;SDS011;11200;51.488;6.668;2022-08-19T03:17:18;4.13;;;3.83;;
22070;SDS011;11200;51.488;6.668;2022-08-19T03:19:44;4.28;;;3.97;;
22070;SDS011;11200;51.488;6.668;2022-08-19T03:22:09;4.65;;;4.25;;
22070;SDS011;11200;51.488;6.668;2022-08-19T03:24:35;4.88;;;4.47;;
22070;SDS011;11200;51.488;6.668;2022-08-19T03:27:02;4.40;;;4.00;;
22070;SDS011;11200;51.488;6.668;2022-08-19T03:29:30;4.70;;;4.30;;
22070;SDS011;11200;51.488;6.668;2022-08-19T03:31:57;4.43;;;4.03;;
22070;SDS011;11200;51.488;6.668;2022-08-19T03:34:27;4.78;;;4.38;;
22070;SDS011;11200;51.488;6.668;2022-08-19T03:36:55;4.63;;;4.22;;
22070;SDS011;11200;51.488;6.668;2022-08-19T03:39:24;4.72;;;4.32;;
22070;SDS011;11200;51.488;6.668;2022-08-19T03:41:51;4.40;;;4.00;;
22070;SDS011;11200;51.488;6.668;2022-08-19T03:44:21;4.63;;;4.22;;
22070;SDS011;11200;51.488;6.668;2022-08-19T03:46:48;4.82;;;4.32;;
22070;SDS011;11200;51.488;6.668;2022-08-19T03:49:16;5.03;;;4.65;;
22070;SDS011;11200;51.488;6.668;2022-08-19T03:51:43;4.65;;;4.25;;
22070;SDS011;11200;51.488;6.668;2022-08-19T03:54:09;4.65;;;4.25;;
22070;SDS011;11200;51.488;6.668;2022-08-19T03:56:38;4.30;;;3.92;;
22070;SDS011;11200;51.488;6.668;2022-08-19T03:59:06;4.55;;;4.25;;
22070;SDS011;11200;51.488;6.668;2022-08-19T04:01:34;4.68;;;4.28;;
22070;SDS011;11200;51.488;6.668;2022-08-19T04:04:00;4.90;;;4.50;;
22070;SDS011;11200;51.488;6.668;2022-08-19T04:06:27;5.00;;;4.60;;
22070;SDS011;11200;51.488;6.668;2022-08-19T04:08:55;4.90;;;4.50;;
22070;SDS011;11200;51.488;6.668;2022-08-19T04:11:27;5.00;;;4.55;;
22070;SDS011;11200;51.488;6.668;2022-08-19T04:13:55;4.82;;;4.43;;
22070;SDS011;11200;51.488;6.668;2022-08-19T04:16:22;5.18;;;4.72;;
22070;SDS011;11200;51.488;6.668;2022-08-19T04:18:49;5.10;;;4.70;;
22070;SDS011;11200;51.488;6.668;2022-08-19T04:21:16;5.40;;;4.90;;
22070;SDS011;11200;51.488;6.668;2022-08-19T04:23:44;5.28;;;4.78;;
22070;SDS011;11200;51.488;6.668;2022-08-19T04:26:34;4.90;;;4.50;;
22070;SDS011;11200;51.488;6.668;2022-08-19T04:29:01;5.07;;;4.68;;
22070;SDS011;11200;51.488;6.668;2022-08-19T04:31:33;4.72;;;4.32;;
22070;SDS011;11200;51.488;6.668;2022-08-19T04:34:02;5.15;;;4.68;;
22070;SDS011;11200;51.488;6.668;2022-08-19T04:36:30;5.35;;;4.85;;
22070;SDS011;11200;51.488;6.668;2022-08-19T04:39:00;4.88;;;4.38;;
22070;SDS011;11200;51.488;6.668;2022-08-19T04:41:31;4.82;;;4.43;;
22070;SDS011;11200;51.488;6.668;2022-08-19T04:44:17;5.13;;;4.72;;
22070;SDS011;11200;51.488;6.668;2022-08-19T04:46:43;5.20;;;4.63;;
22070;SDS011;11200;51.488;6.668;2022-08-19T04:49:09;4.93;;;4.53;;
22070;SDS011;11200;51.488;6.668;2022-08-19T04:51:36;5.43;;;4.93;;
22070;SDS011;11200;51.488;6.668;2022-08-19T04:54:04;4.88;;;4.47;;
22070;SDS011;11200;51.488;6.668;2022-08-19T04:56:30;4.80;;;4.40;;
22070;SDS011;11200;51.488;6.668;2022-08-19T04:58:56;5.22;;;4.78;;
22070;SDS011;11200;51.488;6.668;2022-08-19T05:01:23;5.50;;;5.00;;
22070;SDS011;11200;51.488;6.668;2022-08-19T05:03:53;5.60;;;5.10;;
22070;SDS011;11200;51.488;6.668;2022-08-19T05:06:20;6.05;;;5.50;;
22070;SDS011;11200;51.488;6.668;2022-08-19T05:08:46;4.75;;;4.35;;
22070;SDS011;11200;51.488;6.668;2022-08-19T05:11:14;5.30;;;4.80;;
22070;SDS011;11200;51.488;6.668;2022-08-19T05:13:42;5.15;;;4.75;;
22070;SDS011;11200;51.488;6.668;2022-08-19T05:16:12;5.25;;;4.78;;
22070;SDS011;11200;51.488;6.668;2022-08-19T05:18:39;5.10;;;4.63;;
22070;SDS011;11200;51.488;6.668;2022-08-19T05:21:24;5.30;;;4.82;;
22070;SDS011;11200;51.488;6.668;2022-08-19T05:24:09;5.15;;;4.75;;
22070;SDS011;11200;51.488;6.668;2022-08-19T05:26:35;5.22;;;4.82;;
22070;SDS011;11200;51.488;6.668;2022-08-19T05:29:01;4.82;;;4.45;;
22070;SDS011;11200;51.488;6.668;2022-08-19T05:31:28;5.90;;;5.35;;
22070;SDS011;11200;51.488;6.668;2022-08-19T05:33:55;5.88;;;5.38;;
22070;SDS011;11200;51.488;6.668;2022-08-19T05:36:23;6.13;;;5.63;;
22070;SDS011;11200;51.488;6.668;2022-08-19T05:38:52;5.95;;;5.40;;
22070;SDS011;11200;51.488;6.668;2022-08-19T05:41:18;4.95;;;4.55;;
22070;SDS011;11200;51.488;6.668;2022-08-19T05:43:45;4.93;;;4.53;;
22070;SDS011;11200;51.488;6.668;2022-08-19T05:46:17;5.00;;;4.60;;
22070;SDS011;11200;51.488;6.668;2022-08-19T05:48:44;5.25;;;4.75;;
22070;SDS011;11200;51.488;6.668;2022-08-19T05:51:10;5.57;;;5.03;;
22070;SDS011;11200;51.488;6.668;2022-08-19T05:53:36;5.38;;;4.63;;
22070;SDS011;11200;51.488;6.668;2022-08-19T05:56:10;6.85;;;5.70;;
22070;SDS011;11200;51.488;6.668;2022-08-19T05:58:38;5.15;;;4.75;;
22070;SDS011;11200;51.488;6.668;2022-08-19T06:01:08;5.53;;;5.13;;
22070;SDS011;11200;51.488;6.668;2022-08-19T06:03:36;6.43;;;5.82;;
22070;SDS011;11200;51.488;6.668;2022-08-19T06:06:03;7.32;;;6.63;;
22070;SDS011;11200;51.488;6.668;2022-08-19T06:08:29;7.70;;;7.00;;
22070;SDS011;11200;51.488;6.668;2022-08-19T06:10:55;8.32;;;7.63;;
22070;SDS011;11200;51.488;6.668;2022-08-19T06:13:21;8.50;;;7.70;;
22070;SDS011;11200;51.488;6.668;2022-08-19T06:15:49;7.43;;;6.72;;
22070;SDS011;11200;51.488;6.668;2022-08-19T06:18:15;7.68;;;7.00;;
22070;SDS011;11200;51.488;6.668;2022-08-19T06:20:41;6.88;;;6.28;;
22070;SDS011;11200;51.488;6.668;2022-08-19T06:23:07;7.30;;;6.60;;
22070;SDS011;11200;51.488;6.668;2022-08-19T06:25:33;7.68;;;6.97;;
22070;SDS011;11200;51.488;6.668;2022-08-19T06:27:59;6.97;;;6.38;;
22070;SDS011;11200;51.488;6.668;2022-08-19T06:30:25;7.32;;;6.63;;
22070;SDS011;11200;51.488;6.668;2022-08-19T06:32:51;8.02;;;7.32;;
22070;SDS011;11200;51.488;6.668;2022-08-19T06:35:17;8.18;;;7.47;;
22070;SDS011;11200;51.488;6.668;2022-08-19T06:37:42;8.50;;;7.70;;
22070;SDS011;11200;51.488;6.668;2022-08-19T06:40:09;7.85;;;7.05;;
22070;SDS011;11200;51.488;6.668;2022-08-19T06:42:36;8.18;;;7.47;;
22070;SDS011;11200;51.488;6.668;2022-08-19T06:45:03;8.85;;;8.07;;
22070;SDS011;11200;51.488;6.668;2022-08-19T06:47:30;9.02;;;8.20;;
22070;SDS011;11200;51.488;6.668;2022-08-19T06:49:57;8.93;;;8.13;;
22070;SDS011;11200;51.488;6.668;2022-08-19T06:52:31;9.90;;;8.90;;
22070;SDS011;11200;51.488;6.668;2022-08-19T06:54:59;9.35;;;8.35;;
22070;SDS011;11200;51.488;6.668;2022-08-19T06:57:26;11.02;;;9.93;;
22070;SDS011;11200;51.488;6.668;2022-08-19T06:59:52;10.32;;;9.25;;
22070;SDS011;11200;51.488;6.668;2022-08-19T07:02:18;10.90;;;9.90;;
22070;SDS011;11200;51.488;6.668;2022-08-19T07:04:44;10.75;;;9.65;;
22070;SDS011;11200;51.488;6.668;2022-08-19T07:07:12;10.77;;;9.77;;
22070;SDS011;11200;51.488;6.668;2022-08-19T07:09:40;10.88;;;9.88;;
22070;SDS011;11200;51.488;6.668;2022-08-19T07:12:09;10.90;;;9.85;;
22070;SDS011;11200;51.488;6.668;2022-08-19T07:14:38;11.85;;;10.65;;
22070;SDS011;11200;51.488;6.668;2022-08-19T07:17:05;10.90;;;9.85;;
22070;SDS011;11200;51.488;6.668;2022-08-19T07:19:31;11.00;;;10.00;;
22070;SDS011;11200;51.488;6.668;2022-08-19T07:22:00;11.15;;;10.13;;
22070;SDS011;11200;51.488;6.668;2022-08-19T07:24:27;10.98;;;9.98;;
22070;SDS011;11200;51.488;6.668;2022-08-19T07:26:55;11.27;;;10.18;;
22070;SDS011;11200;51.488;6.668;2022-08-19T07:29:25;11.82;;;10.63;;
22070;SDS011;11200;51.488;6.668;2022-08-19T07:31:52;11.75;;;10.55;;
22070;SDS011;11200;51.488;6.668;2022-08-19T07:34:21;11.88;;;10.68;;
22070;SDS011;11200;51.488;6.668;2022-08-19T07:36:48;13.10;;;11.70;;
22070;SDS011;11200;51.488;6.668;2022-08-19T07:39:15;12.07;;;10.73;;
22070;SDS011;11200;51.488;6.668;2022-08-19T07:41:44;12.85;;;11.40;;
22070;SDS011;11200;51.488;6.668;2022-08-19T07:44:11;13.43;;;12.13;;
22070;SDS011;11200;51.488;6.668;2022-08-19T07:46:39;13.43;;;12.02;;
22070;SDS011;11200;51.488;6.668;2022-08-19T07:49:09;13.30;;;11.93;;
22070;SDS011;11200;51.488;6.668;2022-08-19T07:51:41;13.10;;;11.90;;
22070;SDS011;11200;51.488;6.668;2022-08-19T07:54:07;12.52;;;11.32;;
22070;SDS011;11200;51.488;6.668;2022-08-19T07:56:32;12.82;;;11.52;;
22070;SDS011;11200;51.488;6.668;2022-08-19T07:58:58;12.45;;;11.15;;
22070;SDS011;11200;51.488;6.668;2022-08-19T08:01:25;12.23;;;10.65;;
22070;SDS011;11200;51.488;6.668;2022-08-19T08:03:52;11.82;;;10.63;;
22070;SDS011;11200;51.488;6.668;2022-08-19T08:06:38;11.60;;;10.45;;
22070;SDS011;11200;51.488;6.668;2022-08-19T08:09:33;10.73;;;9.63;;
22070;SDS011;11200;51.488;6.668;2022-08-19T08:12:03;11.45;;;10.35;;
22070;SDS011;11200;51.488;6.668;2022-08-19T08:14:41;10.88;;;9.68;;
22070;SDS011;11200;51.488;6.668;2022-08-19T08:17:14;11.38;;;10.18;;
22070;SDS011;11200;51.488;6.668;2022-08-19T08:19:42;10.80;;;9.70;;
22070;SDS011;11200;51.488;6.668;2022-08-19T08:22:08;10.20;;;9.27;;
22070;SDS011;11200;51.488;6.668;2022-08-19T08:24:55;9.43;;;8.52;;
22070;SDS011;11200;51.488;6.668;2022-08-19T08:27:23;9.93;;;8.93;;
22070;SDS011;11200;51.488;6.668;2022-08-19T08:29:49;10.23;;;9.20;;
22070;SDS011;11200;51.488;6.668;2022-08-19T08:32:15;9.10;;;8.20;;
22070;SDS011;11200;51.488;6.668;2022-08-19T08:34:41;9.50;;;8.50;;
22070;SDS011;11200;51.488;6.668;2022-08-19T08:37:07;9.50;;;8.52;;
22070;SDS011;11200;51.488;6.668;2022-08-19T08:39:33;9.25;;;8.30;;
22070;SDS011;11200;51.488;6.668;2022-08-19T08:43:01;10.18;;;8.95;;
22070;SDS011;11200;51.488;6.668;2022-08-19T08:45:03;9.73;;;8.70;;
22070;SDS011;11200;51.488;6.668;2022-08-19T08:47:35;9.75;;;8.77;;
22070;SDS011;11200;51.488;6.668;2022-08-19T08:50:04;10.20;;;9.15;;
22070;SDS011;11200;51.488;6.668;2022-08-19T08:52:52;9.40;;;8.50;;
22070;SDS011;11200;51.488;6.668;2022-08-19T08:55:22;9.68;;;8.68;;
22070;SDS011;11200;51.488;6.668;2022-08-19T09:03:24;9.38;;;8.48;;
22070;SDS011;11200;51.488;6.668;2022-08-19T09:06:02;9.38;;;7.75;;
22070;SDS011;11200;51.488;6.668;2022-08-19T09:08:40;8.40;;;7.60;;
22070;SDS011;11200;51.488;6.668;2022-08-19T09:16:57;7.65;;;6.95;;
22070;SDS011;11200;51.488;6.668;2022-08-19T09:19:23;8.48;;;7.68;;
22070;SDS011;11200;51.488;6.668;2022-08-19T09:21:48;8.48;;;7.65;;
22070;SDS011;11200;51.488;6.668;2022-08-19T09:24:15;9.68;;;8.77;;
22070;SDS011;11200;51.488;6.668;2022-08-19T09:26:41;8.90;;;8.00;;
22070;SDS011;11200;51.488;6.668;2022-08-19T09:29:08;8.40;;;7.60;;
22070;SDS011;11200;51.488;6.668;2022-08-19T09:31:34;8.15;;;7.25;;
22070;SDS011;11200;51.488;6.668;2022-08-19T09:34:00;8.20;;;7.50;;
22070;SDS011;11200;51.488;6.668;2022-08-19T09:36:28;8.13;;;7.43;;
22070;SDS011;11200;51.488;6.668;2022-08-19T09:38:55;7.82;;;7.13;;
22070;SDS011;11200;51.488;6.668;2022-08-19T09:41:21;8.10;;;7.30;;
22070;SDS011;11200;51.488;6.668;2022-08-19T09:43:49;7.65;;;6.95;;
22070;SDS011;11200;51.488;6.668;2022-08-19T09:46:18;7.97;;;7.20;;
22070;SDS011;11200;51.488;6.668;2022-08-19T09:48:46;8.10;;;7.30;;
22070;SDS011;11200;51.488;6.668;2022-08-19T09:51:19;8.80;;;7.90;;
22070;SDS011;11200;51.488;6.668;2022-08-19T09:53:47;8.88;;;7.97;;
22070;SDS011;11200;51.488;6.668;2022-08-19T09:56:19;8.05;;;7.35;;
22070;SDS011;11200;51.488;6.668;2022-08-19T09:58:46;8.80;;;7.90;;
22070;SDS011;11200;51.488;6.668;2022-08-19T10:01:16;8.07;;;7.38;;
22070;SDS011;11200;51.488;6.668;2022-08-19T10:03:51;7.70;;;7.00;;
22070;SDS011;11200;51.488;6.668;2022-08-19T10:06:19;8.23;;;7.43;;
22070;SDS011;11200;51.488;6.668;2022-08-19T10:08:46;8.48;;;7.68;;
22070;SDS011;11200;51.488;6.668;2022-08-19T10:11:13;7.88;;;7.18;;
22070;SDS011;11200;51.488;6.668;2022-08-19T10:13:41;8.57;;;7.38;;
22070;SDS011;11200;51.488;6.668;2022-08-19T10:16:09;8.70;;;8.00;;
22070;SDS011;11200;51.488;6.668;2022-08-19T10:18:37;8.80;;;8.00;;
22070;SDS011;11200;51.488;6.668;2022-08-19T10:21:05;8.65;;;7.90;;
22070;SDS011;11200;51.488;6.668;2022-08-19T10:23:33;8.30;;;7.55;;
22070;SDS011;11200;51.488;6.668;2022-08-19T10:26:01;8.07;;;7.38;;
22070;SDS011;11200;51.488;6.668;2022-08-19T10:28:28;8.32;;;7.53;;
22070;SDS011;11200;51.488;6.668;2022-08-19T10:30:54;8.40;;;7.68;;
22070;SDS011;11200;51.488;6.668;2022-08-19T10:33:19;8.38;;;7.57;;
22070;SDS011;11200;51.488;6.668;2022-08-19T10:35:45;8.20;;;7.50;;
22070;SDS011;11200;51.488;6.668;2022-08-19T10:38:11;8.20;;;7.50;;
22070;SDS011;11200;51.488;6.668;2022-08-19T10:40:37;7.88;;;7.18;;
22070;SDS011;11200;51.488;6.668;2022-08-19T10:43:03;7.80;;;7.10;;
22070;SDS011;11200;51.488;6.668;2022-08-19T10:45:28;8.43;;;7.60;;
22070;SDS011;11200;51.488;6.668;2022-08-19T10:47:54;7.88;;;7.28;;
22070;SDS011;11200;51.488;6.668;2022-08-19T10:50:20;7.75;;;7.05;;
22070;SDS011;11200;51.488;6.668;2022-08-19T10:53:24;8.77;;;7.97;;
22070;SDS011;11200;51.488;6.668;2022-08-19T10:55:50;8.18;;;7.40;;
22070;SDS011;11200;51.488;6.668;2022-08-19T10:58:34;8.23;;;7.40;;
22070;SDS011;11200;51.488;6.668;2022-08-19T11:01:00;7.43;;;6.72;;
22070;SDS011;11200;51.488;6.668;2022-08-19T11:03:26;7.53;;;6.82;;
22070;SDS011;11200;51.488;6.668;2022-08-19T11:06:03;7.55;;;6.85;;
22070;SDS011;11200;51.488;6.668;2022-08-19T11:08:32;7.68;;;6.97;;
22070;SDS011;11200;51.488;6.668;2022-08-19T11:11:00;7.10;;;6.50;;
22070;SDS011;11200;51.488;6.668;2022-08-19T11:13:28;8.82;;;6.50;;
22070;SDS011;11200;51.488;6.668;2022-08-19T11:16:03;6.72;;;6.13;;
22070;SDS011;11200;51.488;6.668;2022-08-19T11:18:31;6.50;;;6.00;;
22070;SDS011;11200;51.488;6.668;2022-08-19T11:23:44;6.93;;;6.32;;
22070;SDS011;11200;51.488;6.668;2022-08-19T11:26:16;6.43;;;5.63;;
22070;SDS011;11200;51.488;6.668;2022-08-19T11:28:42;6.20;;;5.70;;
22070;SDS011;11200;51.488;6.668;2022-08-19T11:31:12;6.57;;;5.97;;
22070;SDS011;11200;51.488;6.668;2022-08-19T11:33:41;6.53;;;5.53;;
22070;SDS011;11200;51.488;6.668;2022-08-19T11:36:07;6.65;;;5.97;;
22070;SDS011;11200;51.488;6.668;2022-08-19T11:38:34;6.68;;;6.05;;
22070;SDS011;11200;51.488;6.668;2022-08-19T11:41:01;5.82;;;5.43;;
22070;SDS011;11200;51.488;6.668;2022-08-19T11:43:30;6.10;;;5.60;;
22070;SDS011;11200;51.488;6.668;2022-08-19T11:45:56;5.90;;;5.40;;
22070;SDS011;11200;51.488;6.668;2022-08-19T11:48:23;5.65;;;5.15;;
22070;SDS011;11200;51.488;6.668;2022-08-19T11:50:50;5.43;;;5.03;;
22070;SDS011;11200;51.488;6.668;2022-08-19T11:53:20;5.45;;;5.05;;
22070;SDS011;11200;51.488;6.668;2022-08-19T11:55:46;5.28;;;4.88;;
22070;SDS011;11200;51.488;6.668;2022-08-19T11:58:13;5.85;;;5.35;;
22070;SDS011;11200;51.488;6.668;2022-08-19T12:00:40;5.30;;;4.90;;
22070;SDS011;11200;51.488;6.668;2022-08-19T12:03:07;5.55;;;5.00;;
22070;SDS011;11200;51.488;6.668;2022-08-19T12:05:33;5.20;;;4.70;;
22070;SDS011;11200;51.488;6.668;2022-08-19T12:08:01;5.20;;;4.70;;
22070;SDS011;11200;51.488;6.668;2022-08-19T12:10:27;5.70;;;5.20;;
22070;SDS011;11200;51.488;6.668;2022-08-19T12:12:52;5.47;;;4.97;;
22070;SDS011;11200;51.488;6.668;2022-08-19T12:15:18;5.18;;;4.78;;
22070;SDS011;11200;51.488;6.668;2022-08-19T12:17:43;4.50;;;4.20;;
22070;SDS011;11200;51.488;6.668;2022-08-19T12:20:09;4.70;;;4.20;;
22070;SDS011;11200;51.488;6.668;2022-08-19T12:22:38;4.40;;;4.10;;
22070;SDS011;11200;51.488;6.668;2022-08-19T12:25:06;4.35;;;3.95;;
22070;SDS011;11200;51.488;6.668;2022-08-19T12:27:33;4.35;;;3.95;;
22070;SDS011;11200;51.488;6.668;2022-08-19T12:30:00;4.55;;;4.10;;
22070;SDS011;11200;51.488;6.668;2022-08-19T12:32:27;4.25;;;3.90;;
22070;SDS011;11200;51.488;6.668;2022-08-19T12:34:53;4.30;;;3.92;;
22070;SDS011;11200;51.488;6.668;2022-08-19T12:37:19;4.50;;;3.90;;
22070;SDS011;11200;51.488;6.668;2022-08-19T12:39:45;3.83;;;3.53;;
22070;SDS011;11200;51.488;6.668;2022-08-19T12:42:11;3.65;;;3.35;;
22070;SDS011;11200;51.488;6.668;2022-08-19T12:44:38;4.30;;;3.90;;
22070;SDS011;11200;51.488;6.668;2022-08-19T12:47:06;4.07;;;3.78;;
22070;SDS011;11200;51.488;6.668;2022-08-19T12:49:33;4.20;;;3.88;;
22070;SDS011;11200;51.488;6.668;2022-08-19T12:52:01;4.35;;;3.95;;
22070;SDS011;11200;51.488;6.668;2022-08-19T12:54:32;4.10;;;3.70;;
22070;SDS011;11200;51.488;6.668;2022-08-19T12:56:58;4.25;;;3.85;;
22070;SDS011;11200;51.488;6.668;2022-08-19T12:59:24;4.43;;;3.72;;
22070;SDS011;11200;51.488;6.668;2022-08-19T13:01:51;3.80;;;3.50;;
22070;SDS011;11200;51.488;6.668;2022-08-19T13:04:19;4.00;;;3.70;;
22070;SDS011;11200;51.488;6.668;2022-08-19T13:06:45;4.38;;;3.85;;
22070;SDS011;11200;51.488;6.668;2022-08-19T13:09:11;4.40;;;3.75;;
22070;SDS011;11200;51.488;6.668;2022-08-19T13:11:37;4.50;;;4.10;;
22070;SDS011;11200;51.488;6.668;2022-08-19T13:14:06;4.03;;;3.67;;
22070;SDS011;11200;51.488;6.668;2022-08-19T13:16:31;4.35;;;3.75;;
22070;SDS011;11200;51.488;6.668;2022-08-19T13:18:57;4.25;;;3.60;;
22070;SDS011;11200;51.488;6.668;2022-08-19T13:21:24;4.43;;;4.03;;
22070;SDS011;11200;51.488;6.668;2022-08-19T13:23:52;4.13;;;3.75;;
22070;SDS011;11200;51.488;6.668;2022-08-19T13:26:19;4.50;;;4.10;;
22070;SDS011;11200;51.488;6.668;2022-08-19T13:28:45;3.95;;;3.60;;
22070;SDS011;11200;51.488;6.668;2022-08-19T13:31:30;4.13;;;3.78;;
22070;SDS011;11200;51.488;6.668;2022-08-19T13:34:17;3.97;;;3.67;;
22070;SDS011;11200;51.488;6.668;2022-08-19T13:36:49;4.50;;;4.10;;
22070;SDS011;11200;51.488;6.668;2022-08-19T13:39:17;5.07;;;4.10;;
22070;SDS011;11200;51.488;6.668;2022-08-19T13:41:44;4.55;;;4.20;;
22070;SDS011;11200;51.488;6.668;2022-08-19T13:44:15;4.97;;;4.57;;
22070;SDS011;11200;51.488;6.668;2022-08-19T13:46:43;5.07;;;4.60;;
22070;SDS011;11200;51.488;6.668;2022-08-19T13:49:10;4.75;;;4.35;;
22070;SDS011;11200;51.488;6.668;2022-08-19T13:51:38;4.68;;;4.28;;
22070;SDS011;11200;51.488;6.668;2022-08-19T13:54:07;5.28;;;4.75;;
22070;SDS011;11200;51.488;6.668;2022-08-19T13:56:34;5.05;;;4.65;;
22070;SDS011;11200;51.488;6.668;2022-08-19T13:59:00;5.20;;;4.75;;
22070;SDS011;11200;51.488;6.668;2022-08-19T14:01:26;4.78;;;4.38;;
22070;SDS011;11200;51.488;6.668;2022-08-19T14:03:52;4.90;;;4.50;;
22070;SDS011;11200;51.488;6.668;2022-08-19T14:06:19;5.00;;;4.50;;
22070;SDS011;11200;51.488;6.668;2022-08-19T14:08:46;5.10;;;4.70;;
22070;SDS011;11200;51.488;6.668;2022-08-19T14:11:12;5.18;;;4.68;;
22070;SDS011;11200;51.488;6.668;2022-08-19T14:13:37;5.00;;;4.60;;
22070;SDS011;11200;51.488;6.668;2022-08-19T14:16:10;5.47;;;4.97;;
22070;SDS011;11200;51.488;6.668;2022-08-19T14:18:37;5.95;;;4.35;;
22070;SDS011;11200;51.488;6.668;2022-08-19T14:21:03;4.30;;;4.00;;
22070;SDS011;11200;51.488;6.668;2022-08-19T14:23:32;4.80;;;4.40;;
22070;SDS011;11200;51.488;6.668;2022-08-19T14:26:09;5.63;;;5.00;;
22070;SDS011;11200;51.488;6.668;2022-08-19T14:28:38;4.70;;;4.30;;
22070;SDS011;11200;51.488;6.668;2022-08-19T14:31:10;4.22;;;3.83;;
22070;SDS011;11200;51.488;6.668;2022-08-19T14:33:37;4.65;;;4.15;;
22070;SDS011;11200;51.488;6.668;2022-08-19T14:36:04;4.72;;;4.32;;
22070;SDS011;11200;51.488;6.668;2022-08-19T14:38:30;4.50;;;4.10;;
22070;SDS011;11200;51.488;6.668;2022-08-19T14:41:05;4.63;;;4.22;;
22070;SDS011;11200;51.488;6.668;2022-08-19T14:43:50;4.65;;;4.25;;
22070;SDS011;11200;51.488;6.668;2022-08-19T14:46:18;5.28;;;4.63;;
22070;SDS011;11200;51.488;6.668;2022-08-19T14:48:52;4.80;;;4.30;;
22070;SDS011;11200;51.488;6.668;2022-08-19T14:51:18;4.80;;;4.40;;
22070;SDS011;11200;51.488;6.668;2022-08-19T14:53:45;5.35;;;4.88;;
22070;SDS011;11200;51.488;6.668;2022-08-19T14:56:15;4.85;;;4.45;;
22070;SDS011;11200;51.488;6.668;2022-08-19T14:58:43;5.57;;;5.07;;
22070;SDS011;11200;51.488;6.668;2022-08-19T15:01:10;5.47;;;4.97;;
22070;SDS011;11200;51.488;6.668;2022-08-19T15:03:40;5.32;;;4.90;;
22070;SDS011;11200;51.488;6.668;2022-08-19T15:06:08;5.70;;;5.20;;
22070;SDS011;11200;51.488;6.668;2022-08-19T15:08:34;5.55;;;4.70;;
22070;SDS011;11200;51.488;6.668;2022-08-19T15:11:06;5.43;;;4.93;;